Time;durP1;ratioP1;P1;durP2;ratioP2;P2;SDS_P1;SDS_P2;PMS_P1;PMS_P2;Temp;Humidity;BMP_temperature;BMP_pressure;BME280_temperature;BME280_humidity;BME280_pressure;Samples;Min_cycle;Max_cycle;Signal;HPM_P1;HPM_P2
2022/08/28 00:02:19;;;;;;;9.93;5.40;;;13.30;99.90;;;;;;5071861;28;20155;-60
2022/08/28 00:04:45;;;;;;;10.05;4.85;;;13.30;99.90;;;;;;5086204;28;20547;-61
2022/08/28 00:07:11;;;;;;;11.68;5.13;;;13.30;99.90;;;;;;5055959;28;20035;-60
2022/08/28 00:09:37;;;;;;;9.40;5.15;;;13.20;99.90;;;;;;5066491;28;20040;-44
2022/08/28 00:12:05;;;;;;;11.70;6.15;;;13.20;99.90;;;;;;5086093;27;20190;-45
2022/08/28 00:14:31;;;;;;;12.93;5.43;;;13.20;99.90;;;;;;5065633;28;20055;-51
2022/08/28 00:16:57;;;;;;;9.57;4.80;;;13.10;99.90;;;;;;5045694;28;20602;-46
2022/08/28 00:19:24;;;;;;;10.63;5.43;;;13.10;99.90;;;;;;5071354;28;20055;-47
2022/08/28 00:21:50;;;;;;;11.02;5.72;;;13.10;99.90;;;;;;5071748;28;20428;-45
2022/08/28 00:24:17;;;;;;;10.40;5.40;;;13.00;99.90;;;;;;5045947;28;20127;-60
2022/08/28 00:29:30;;;;;;;10.32;5.63;;;12.90;99.90;;;;;;5070138;28;20146;-60
2022/08/28 00:31:57;;;;;;;13.68;4.95;;;13.00;99.90;;;;;;5066615;28;20056;-58
2022/08/28 00:34:24;;;;;;;11.43;5.13;;;13.00;99.90;;;;;;5082536;28;20514;-60
2022/08/28 00:36:50;;;;;;;12.95;5.43;;;13.00;99.90;;;;;;5084332;28;20044;-59
2022/08/28 00:39:16;;;;;;;15.20;6.03;;;13.00;99.90;;;;;;5065646;28;20056;-59
2022/08/28 00:41:43;;;;;;;10.90;5.05;;;12.90;99.90;;;;;;5064695;28;20044;-59
2022/08/28 00:44:11;;;;;;;11.77;5.35;;;12.90;99.90;;;;;;5066921;28;20609;-60
2022/08/28 00:46:37;;;;;;;9.85;5.13;;;12.90;99.90;;;;;;5050473;28;20036;-59
2022/08/28 00:49:05;;;;;;;9.70;5.35;;;12.90;99.90;;;;;;5068755;28;20053;-60
2022/08/28 00:54:18;;;;;;;12.13;5.45;;;12.90;99.90;;;;;;5069078;28;20058;-49
2022/08/28 00:56:46;;;;;;;9.63;4.88;;;12.80;99.90;;;;;;5045162;28;20048;-45
2022/08/28 00:59:15;;;;;;;10.90;5.32;;;12.90;99.90;;;;;;5054827;28;20051;-60
2022/08/28 01:01:42;;;;;;;10.65;5.93;;;12.80;99.90;;;;;;5067797;28;20074;-46
2022/08/28 01:04:15;;;;;;;11.75;5.72;;;12.80;99.90;;;;;;5071659;28;20056;-46
2022/08/28 01:06:44;;;;;;;11.02;5.22;;;12.80;99.90;;;;;;5081743;28;20052;-47
2022/08/28 01:09:14;;;;;;;11.23;5.75;;;12.80;99.90;;;;;;5046338;28;20036;-46
2022/08/28 01:11:43;;;;;;;14.35;4.70;;;12.70;99.90;;;;;;5064802;28;20139;-44
2022/08/28 01:14:12;;;;;;;10.20;5.22;;;12.70;99.90;;;;;;5068446;28;20495;-49
2022/08/28 01:16:41;;;;;;;11.35;5.53;;;12.70;99.90;;;;;;5071643;28;20047;-45
2022/08/28 01:19:16;;;;;;;11.57;5.50;;;12.70;99.90;;;;;;5068089;28;20582;-59
2022/08/28 01:22:01;;;;;;;11.85;5.63;;;12.60;99.90;;;;;;5065919;28;20048;-59
2022/08/28 01:24:29;;;;;;;21.77;5.72;;;12.60;99.90;;;;;;5067679;28;20287;-59
2022/08/28 01:26:55;;;;;;;14.60;5.85;;;12.60;99.90;;;;;;5067639;28;20047;-44
2022/08/28 01:29:22;;;;;;;14.80;5.70;;;12.60;99.90;;;;;;5039342;28;20044;-44
2022/08/28 01:31:48;;;;;;;12.07;6.03;;;12.50;99.90;;;;;;5075901;28;20051;-44
2022/08/28 01:34:14;;;;;;;11.75;5.50;;;12.50;99.90;;;;;;5067656;28;20054;-43
2022/08/28 01:36:41;;;;;;;10.95;5.60;;;12.50;99.90;;;;;;5073244;28;20646;-43
2022/08/28 01:39:11;;;;;;;15.35;5.65;;;12.50;99.90;;;;;;5083844;28;20438;-44
2022/08/28 01:41:39;;;;;;;14.50;5.65;;;12.50;99.90;;;;;;5064250;28;20044;-46
2022/08/28 01:44:05;;;;;;;15.05;5.68;;;12.50;99.90;;;;;;5082349;28;20110;-45
2022/08/28 01:46:32;;;;;;;13.65;5.75;;;12.50;99.90;;;;;;5080417;28;20548;-45
2022/08/28 01:48:59;;;;;;;9.23;4.75;;;12.40;99.90;;;;;;5079741;28;20048;-51
2022/08/28 01:51:25;;;;;;;10.27;5.32;;;12.40;99.90;;;;;;5047265;28;20301;-47
2022/08/28 01:53:52;;;;;;;15.98;6.13;;;12.40;99.90;;;;;;5070546;28;20060;-60
2022/08/28 01:56:18;;;;;;;12.95;6.07;;;12.40;99.90;;;;;;5083062;28;20075;-44
2022/08/28 01:58:46;;;;;;;10.15;5.47;;;12.40;99.90;;;;;;5067655;28;20049;-47
2022/08/28 02:01:16;;;;;;;13.13;6.38;;;12.40;99.90;;;;;;5065709;28;20418;-45
2022/08/28 02:03:42;;;;;;;14.00;6.10;;;12.40;99.90;;;;;;5045022;28;20137;-60
2022/08/28 02:06:10;;;;;;;11.50;5.75;;;12.30;99.90;;;;;;5067870;28;20060;-59
2022/08/28 02:08:36;;;;;;;13.20;5.55;;;12.30;99.90;;;;;;5057786;28;20399;-49
2022/08/28 02:11:05;;;;;;;10.45;6.13;;;12.30;99.90;;;;;;5070805;28;20083;-44
2022/08/28 02:13:31;;;;;;;12.65;6.03;;;12.30;99.90;;;;;;5073084;28;20485;-44
2022/08/28 02:15:57;;;;;;;12.75;5.63;;;12.20;99.90;;;;;;5083823;28;20669;-45
2022/08/28 02:18:23;;;;;;;11.15;5.60;;;12.30;99.90;;;;;;5086317;28;20093;-48
2022/08/28 02:20:50;;;;;;;11.27;5.55;;;12.20;99.90;;;;;;5086758;28;20044;-60
2022/08/28 02:23:16;;;;;;;17.17;6.68;;;12.20;99.90;;;;;;5046645;28;20075;-59
2022/08/28 02:25:42;;;;;;;11.02;5.80;;;12.20;99.90;;;;;;5081131;28;20052;-59
2022/08/28 02:28:08;;;;;;;10.93;5.80;;;12.20;99.90;;;;;;5081822;28;20048;-59
2022/08/28 02:30:35;;;;;;;11.27;5.30;;;12.20;99.90;;;;;;5070071;28;20102;-59
2022/08/28 02:33:01;;;;;;;12.02;5.32;;;12.10;99.90;;;;;;5052842;28;20050;-46
2022/08/28 02:35:29;;;;;;;9.73;5.50;;;12.10;99.90;;;;;;5063495;28;20109;-46
2022/08/28 02:37:56;;;;;;;9.05;5.05;;;12.00;99.90;;;;;;5082051;28;20044;-44
2022/08/28 02:40:23;;;;;;;9.77;5.10;;;12.00;99.90;;;;;;5071779;28;20046;-44
2022/08/28 02:42:49;;;;;;;9.88;5.20;;;11.90;99.90;;;;;;5039992;28;20051;-58
2022/08/28 02:45:17;;;;;;;7.70;4.95;;;11.80;99.90;;;;;;5059043;28;21365;-59
2022/08/28 02:47:44;;;;;;;9.52;5.18;;;11.80;99.90;;;;;;5076875;28;20530;-59
2022/08/28 02:50:13;;;;;;;8.95;5.25;;;11.70;99.90;;;;;;5051293;28;20052;-59
2022/08/28 02:52:40;;;;;;;10.05;4.95;;;11.70;99.90;;;;;;5062773;28;20136;-43
2022/08/28 02:55:08;;;;;;;9.13;5.53;;;11.70;99.90;;;;;;5071662;28;20055;-46
2022/08/28 02:57:35;;;;;;;8.13;5.22;;;11.60;99.90;;;;;;5060753;28;20449;-58
2022/08/28 03:00:04;;;;;;;12.20;5.68;;;11.60;99.90;;;;;;5084123;28;20104;-58
2022/08/28 03:02:30;;;;;;;11.52;5.63;;;11.60;99.90;;;;;;5064445;28;20451;-59
2022/08/28 03:04:58;;;;;;;6.82;4.70;;;11.50;99.90;;;;;;5077259;28;20078;-58
2022/08/28 03:07:25;;;;;;;9.35;4.43;;;11.40;99.90;;;;;;5065990;28;20436;-59
2022/08/28 03:09:51;;;;;;;8.82;5.00;;;11.40;99.90;;;;;;5051784;28;20040;-60
2022/08/28 03:12:22;;;;;;;10.20;5.35;;;11.30;99.90;;;;;;5050226;28;20521;-59
2022/08/28 03:14:50;;;;;;;9.43;5.47;;;11.30;99.90;;;;;;5069284;28;20055;-59
2022/08/28 03:17:17;;;;;;;11.27;5.38;;;11.30;99.90;;;;;;5070346;28;20056;-59
2022/08/28 03:19:43;;;;;;;8.75;5.57;;;11.20;99.90;;;;;;5072570;28;20056;-59
2022/08/28 03:22:10;;;;;;;12.18;6.40;;;11.20;99.90;;;;;;5068527;28;20491;-59
2022/08/28 03:24:37;;;;;;;12.32;5.60;;;11.10;99.90;;;;;;5078078;28;20064;-59
2022/08/28 03:27:04;;;;;;;11.27;5.28;;;11.10;99.90;;;;;;5067018;27;20512;-59
2022/08/28 03:29:30;;;;;;;8.82;5.20;;;11.00;99.90;;;;;;5069137;28;20040;-59
2022/08/28 03:31:57;;;;;;;11.00;5.00;;;11.00;99.90;;;;;;5071299;28;20048;-59
2022/08/28 03:34:23;;;;;;;10.45;4.90;;;11.00;99.90;;;;;;5072630;28;20105;-59
2022/08/28 03:36:49;;;;;;;8.77;5.40;;;11.00;99.90;;;;;;5067578;28;20546;-46
2022/08/28 03:39:15;;;;;;;9.98;4.80;;;11.00;99.90;;;;;;5069960;28;20109;-57
2022/08/28 03:41:41;;;;;;;9.68;5.57;;;11.00;99.90;;;;;;5059744;28;20049;-45
2022/08/28 03:44:08;;;;;;;7.80;5.00;;;11.00;99.90;;;;;;5070779;28;20048;-45
2022/08/28 03:46:34;;;;;;;9.15;4.90;;;11.00;99.90;;;;;;5068158;28;20145;-45
2022/08/28 03:49:02;;;;;;;9.05;5.43;;;11.00;99.90;;;;;;5068822;28;20484;-45
2022/08/28 03:51:31;;;;;;;10.68;5.07;;;10.90;99.90;;;;;;5083297;28;20105;-47
2022/08/28 03:53:58;;;;;;;10.75;5.35;;;10.90;99.90;;;;;;5071781;28;20924;-46
2022/08/28 03:56:26;;;;;;;9.02;5.35;;;10.80;99.90;;;;;;5081682;28;20039;-45
2022/08/28 03:58:54;;;;;;;11.55;5.22;;;10.80;99.90;;;;;;5082774;28;20041;-47
2022/08/28 04:01:20;;;;;;;10.32;5.32;;;10.80;99.90;;;;;;5065690;28;20060;-46
2022/08/28 04:03:47;;;;;;;11.05;5.68;;;10.70;99.90;;;;;;5068533;28;20044;-46
2022/08/28 04:06:13;;;;;;;8.25;5.13;;;10.70;99.90;;;;;;5086719;28;20504;-43
2022/08/28 04:08:39;;;;;;;10.43;5.60;;;10.70;99.90;;;;;;5066028;28;20036;-44
2022/08/28 04:11:06;;;;;;;8.50;5.93;;;10.70;99.90;;;;;;5070783;28;20044;-47
2022/08/28 04:13:32;;;;;;;8.23;5.40;;;10.70;99.90;;;;;;5073446;28;20070;-46
2022/08/28 04:16:04;;;;;;;11.68;5.18;;;10.80;99.90;;;;;;5067316;28;20582;-44
2022/08/28 04:18:30;;;;;;;12.45;6.13;;;10.70;99.90;;;;;;5070849;28;20869;-45
2022/08/28 04:20:58;;;;;;;9.23;5.90;;;10.80;99.90;;;;;;5076242;28;20546;-43
2022/08/28 04:23:25;;;;;;;11.10;5.82;;;10.80;99.90;;;;;;5079318;28;20244;-44
2022/08/28 04:25:51;;;;;;;7.78;5.43;;;10.90;99.90;;;;;;5049072;28;20106;-44
2022/08/28 04:28:17;;;;;;;7.88;5.32;;;10.90;99.90;;;;;;5062799;28;20044;-43
2022/08/28 04:30:43;;;;;;;10.15;5.05;;;10.90;99.90;;;;;;5070120;28;20124;-47
2022/08/28 04:33:09;;;;;;;10.82;5.20;;;10.90;99.90;;;;;;5087235;28;20117;-46
2022/08/28 04:35:35;;;;;;;9.60;5.13;;;10.90;99.90;;;;;;5072197;28;20059;-44
2022/08/28 04:38:01;;;;;;;9.65;4.72;;;11.00;99.90;;;;;;5072031;28;20457;-44
2022/08/28 04:40:27;;;;;;;7.53;4.70;;;10.90;99.90;;;;;;5051640;28;20047;-47
2022/08/28 04:42:53;;;;;;;10.38;5.28;;;10.90;99.90;;;;;;5066375;28;20121;-45
2022/08/28 04:45:20;;;;;;;8.50;5.03;;;10.90;99.90;;;;;;5077132;28;20119;-49
2022/08/28 04:47:46;;;;;;;8.30;4.53;;;10.90;99.90;;;;;;5066386;28;20059;-45
2022/08/28 04:50:12;;;;;;;8.73;4.70;;;10.90;99.90;;;;;;5072314;28;20123;-44
2022/08/28 04:52:39;;;;;;;9.32;5.55;;;10.90;99.90;;;;;;5071909;28;20051;-45
2022/08/28 04:55:05;;;;;;;10.32;5.47;;;11.00;99.90;;;;;;5071236;28;20040;-46
2022/08/28 04:57:31;;;;;;;10.27;5.47;;;11.10;99.90;;;;;;5048409;28;20055;-47
2022/08/28 04:59:57;;;;;;;15.63;6.07;;;11.10;99.90;;;;;;5088948;28;20064;-45
2022/08/28 05:02:23;;;;;;;11.35;5.85;;;11.20;99.90;;;;;;5051995;28;20087;-45
2022/08/28 05:04:49;;;;;;;13.43;5.85;;;11.30;99.90;;;;;;5063676;28;20214;-46
2022/08/28 05:07:15;;;;;;;10.63;5.93;;;11.40;99.90;;;;;;5074392;28;20040;-46
2022/08/28 05:09:41;;;;;;;12.80;5.93;;;11.50;99.90;;;;;;5034912;28;20054;-47
2022/08/28 05:12:11;;;;;;;12.27;5.20;;;11.50;99.90;;;;;;5075347;28;20079;-44
2022/08/28 05:14:38;;;;;;;14.20;6.13;;;11.60;99.90;;;;;;5067307;28;20048;-45
2022/08/28 05:17:05;;;;;;;10.93;5.32;;;11.70;99.90;;;;;;5072003;28;20040;-44
2022/08/28 05:19:32;;;;;;;13.80;5.43;;;11.70;99.90;;;;;;5064384;28;20495;-45
2022/08/28 05:21:58;;;;;;;12.90;5.10;;;11.80;99.90;;;;;;5067318;28;20127;-45
2022/08/28 05:24:24;;;;;;;13.80;5.00;;;11.90;99.90;;;;;;5069293;28;20048;-44
2022/08/28 05:26:50;;;;;;;11.50;4.88;;;11.90;99.90;;;;;;5065913;28;20040;-44
2022/08/28 05:29:16;;;;;;;12.45;4.97;;;12.00;99.90;;;;;;5061245;28;20051;-58
2022/08/28 05:31:43;;;;;;;9.80;4.80;;;12.00;99.90;;;;;;5075661;28;20051;-59
2022/08/28 05:34:09;;;;;;;14.52;5.20;;;12.10;99.90;;;;;;5064655;28;20066;-47
2022/08/28 05:36:37;;;;;;;12.23;4.60;;;12.10;99.90;;;;;;5083054;28;20056;-59
2022/08/28 05:39:06;;;;;;;10.50;4.75;;;12.20;99.90;;;;;;5074775;28;20419;-49
2022/08/28 05:41:33;;;;;;;9.32;4.70;;;12.30;99.90;;;;;;5079608;28;20039;-46
2022/08/28 05:44:02;;;;;;;9.85;4.47;;;12.40;99.90;;;;;;5075830;27;20055;-46
2022/08/28 05:46:28;;;;;;;8.32;4.82;;;12.70;99.90;;;;;;5037925;28;20051;-46
2022/08/28 05:48:56;;;;;;;11.63;5.93;;;12.90;99.90;;;;;;5060187;28;20040;-41
2022/08/28 05:51:25;;;;;;;8.27;4.18;;;13.10;99.90;;;;;;5080643;28;20040;-46
2022/08/28 05:53:52;;;;;;;11.52;4.18;;;13.30;99.90;;;;;;5063348;28;20036;-47
2022/08/28 05:56:21;;;;;;;9.13;3.95;;;13.50;99.90;;;;;;5080527;28;20124;-47
2022/08/28 05:58:47;;;;;;;9.18;4.00;;;13.70;99.90;;;;;;5058392;28;20556;-46
2022/08/28 06:01:19;;;;;;;9.23;4.07;;;13.80;99.90;;;;;;5066451;28;20044;-46
2022/08/28 06:03:53;;;;;;;10.02;3.22;;;13.90;99.90;;;;;;5069737;28;20379;-46
2022/08/28 06:06:21;;;;;;;10.70;3.58;;;14.10;99.90;;;;;;5082570;28;20523;-47
2022/08/28 06:08:50;;;;;;;9.65;2.92;;;14.20;99.90;;;;;;5068240;28;20048;-46
2022/08/28 06:11:19;;;;;;;8.02;3.03;;;14.40;99.90;;;;;;5056696;28;20521;-42
2022/08/28 06:13:45;;;;;;;10.73;3.20;;;14.50;99.90;;;;;;5072996;28;20040;-47
2022/08/28 06:16:12;;;;;;;8.02;3.13;;;14.70;99.90;;;;;;5071722;28;20040;-59
2022/08/28 06:18:39;;;;;;;10.23;3.10;;;14.90;99.90;;;;;;5064066;28;20135;-59
2022/08/28 06:21:05;;;;;;;8.38;2.72;;;15.10;99.90;;;;;;5072549;28;20055;-59
2022/08/28 06:23:31;;;;;;;7.72;2.97;;;15.20;99.90;;;;;;5068924;28;20100;-58
2022/08/28 06:25:57;;;;;;;7.43;2.78;;;15.40;99.90;;;;;;5066987;28;20087;-58
2022/08/28 06:28:26;;;;;;;8.55;2.90;;;15.60;99.90;;;;;;5069667;28;20040;-58
2022/08/28 06:30:53;;;;;;;8.30;2.70;;;15.70;99.90;;;;;;5076375;28;20197;-58
2022/08/28 06:33:21;;;;;;;7.60;2.50;;;15.80;99.90;;;;;;5083896;28;20052;-58
2022/08/28 06:35:50;;;;;;;8.65;2.90;;;15.90;99.90;;;;;;5067729;28;20487;-59
2022/08/28 06:38:19;;;;;;;7.70;2.65;;;16.00;99.90;;;;;;5073531;28;20056;-46
2022/08/28 06:40:48;;;;;;;8.10;2.58;;;16.10;99.90;;;;;;5070111;28;20056;-51
2022/08/28 06:43:15;;;;;;;7.22;3.17;;;16.30;99.90;;;;;;5071227;28;20047;-59
2022/08/28 06:45:43;;;;;;;7.53;2.80;;;16.40;99.90;;;;;;5071493;28;20505;-59
2022/08/28 06:48:15;;;;;;;8.32;2.80;;;16.50;99.90;;;;;;5086515;27;20505;-45
2022/08/28 06:50:45;;;;;;;6.13;2.50;;;16.80;99.90;;;;;;5073865;28;20051;-48
2022/08/28 06:53:14;;;;;;;8.65;2.92;;;16.90;99.90;;;;;;5068840;28;20044;-46
2022/08/28 06:55:41;;;;;;;7.63;2.35;;;17.00;99.90;;;;;;5057680;28;20089;-45
2022/08/28 06:58:08;;;;;;;8.18;2.67;;;17.30;99.90;;;;;;5071363;28;20108;-61
2022/08/28 07:00:35;;;;;;;8.50;2.70;;;17.50;99.90;;;;;;5057049;28;21246;-59
2022/08/28 07:03:04;;;;;;;7.93;2.22;;;17.70;99.90;;;;;;5065339;28;20044;-57
2022/08/28 07:05:34;;;;;;;6.93;2.55;;;17.80;99.90;;;;;;5073168;28;20039;-58
2022/08/28 07:08:00;;;;;;;7.72;2.03;;;18.00;99.90;;;;;;5065829;28;20359;-58
2022/08/28 07:10:30;;;;;;;9.70;2.80;;;18.20;99.90;;;;;;5078745;28;20469;-57
2022/08/28 07:12:59;;;;;;;8.75;2.38;;;18.50;99.90;;;;;;5082162;28;20055;-56
2022/08/28 07:15:26;;;;;;;7.72;2.28;;;18.80;99.90;;;;;;5081853;28;20066;-50
2022/08/28 07:17:52;;;;;;;10.60;2.58;;;19.10;99.90;;;;;;5079879;28;20056;-56
2022/08/28 07:20:18;;;;;;;7.63;2.40;;;19.40;99.90;;;;;;5080001;28;20374;-56
2022/08/28 07:22:44;;;;;;;10.57;3.13;;;19.60;99.90;;;;;;5074726;28;20052;-57
2022/08/28 07:25:11;;;;;;;7.07;2.15;;;20.00;99.90;;;;;;5076128;28;20043;-56
2022/08/28 07:27:37;;;;;;;6.72;1.90;;;20.60;99.90;;;;;;5097919;27;20040;-56
2022/08/28 07:30:08;;;;;;;7.22;2.00;;;20.80;99.90;;;;;;5080416;28;20036;-56
2022/08/28 07:32:35;;;;;;;5.38;1.90;;;21.30;99.90;;;;;;5077739;28;20076;-43
2022/08/28 07:35:01;;;;;;;10.93;2.20;;;21.50;99.90;;;;;;5071665;28;20087;-43
2022/08/28 07:37:27;;;;;;;10.95;2.13;;;21.70;99.90;;;;;;5069123;28;20507;-42
2022/08/28 07:39:53;;;;;;;6.07;2.20;;;21.90;99.90;;;;;;5062945;28;20714;-43
2022/08/28 07:45:04;;;;;;;5.38;1.58;;;22.40;99.90;;;;;;5076376;28;20123;-58
2022/08/28 07:47:30;;;;;;;5.60;1.88;;;22.60;99.90;;;;;;5074808;28;20052;-43
2022/08/28 07:50:01;;;;;;;8.20;2.80;;;22.90;99.90;;;;;;5075091;28;20066;-43
2022/08/28 07:52:28;;;;;;;6.23;2.07;;;22.90;99.90;;;;;;5065249;28;20433;-44
2022/08/28 07:54:55;;;;;;;7.88;1.95;;;22.70;99.90;;;;;;5049226;28;20400;-60
2022/08/28 07:57:21;;;;;;;8.10;3.30;;;22.90;99.90;;;;;;5086691;28;20552;-56
2022/08/28 07:59:48;;;;;;;8.55;3.53;;;23.10;99.90;;;;;;5082426;28;20074;-57
2022/08/28 08:02:15;;;;;;;7.75;2.22;;;23.00;99.90;;;;;;5088645;27;20616;-57
2022/08/28 08:04:41;;;;;;;7.90;2.13;;;22.90;99.90;;;;;;5088068;28;20498;-57
2022/08/28 08:07:08;;;;;;;6.63;2.63;;;22.70;99.90;;;;;;5069189;28;20044;-56
2022/08/28 08:09:40;;;;;;;5.63;3.05;;;23.00;98.70;;;;;;5071549;28;20424;-56
2022/08/28 08:12:07;;;;;;;10.63;4.90;;;23.10;97.30;;;;;;5070601;28;20044;-57
2022/08/28 08:14:34;;;;;;;7.72;4.80;;;23.20;96.70;;;;;;5095836;27;20062;-56
2022/08/28 08:17:01;;;;;;;8.25;5.30;;;23.60;97.50;;;;;;5071620;28;20489;-56
2022/08/28 08:19:28;;;;;;;7.75;4.07;;;23.80;96.10;;;;;;5069117;28;20056;-56
2022/08/28 08:21:54;;;;;;;10.07;5.00;;;24.30;95.10;;;;;;5076300;28;20562;-55
2022/08/28 08:24:24;;;;;;;7.75;4.00;;;24.80;93.70;;;;;;5079273;28;20048;-57
2022/08/28 08:26:52;;;;;;;9.57;5.55;;;24.70;92.00;;;;;;5071351;28;20130;-57
2022/08/28 08:29:20;;;;;;;6.90;2.25;;;24.80;83.30;;;;;;5073241;28;20063;-57
2022/08/28 08:31:54;;;;;;;5.35;2.78;;;24.70;73.90;;;;;;5080407;28;20395;-57
2022/08/28 08:34:20;;;;;;;12.38;7.25;;;24.90;72.90;;;;;;5094080;27;20140;-56
2022/08/28 08:36:46;;;;;;;9.40;8.45;;;25.40;74.90;;;;;;5078216;28;20512;-56
2022/08/28 08:39:13;;;;;;;9.35;6.10;;;25.10;70.70;;;;;;5060121;28;20443;-56
2022/08/28 08:41:50;;;;;;;4.55;1.85;;;25.30;68.40;;;;;;5052949;28;20037;-56
2022/08/28 08:44:22;;;;;;;10.63;9.25;;;25.60;67.20;;;;;;5066949;28;20048;-45
2022/08/28 08:46:59;;;;;;;7.70;5.07;;;26.20;65.80;;;;;;5071652;28;20066;-43
2022/08/28 08:49:31;;;;;;;6.90;4.68;;;26.50;61.80;;;;;;5072138;28;20436;-44
2022/08/28 08:51:57;;;;;;;16.67;12.07;;;26.60;61.30;;;;;;5078907;28;20509;-59
2022/08/28 08:54:24;;;;;;;7.25;3.42;;;25.80;61.40;;;;;;5092778;27;20044;-45
2022/08/28 08:56:53;;;;;;;5.25;2.95;;;25.60;61.60;;;;;;5076497;28;20105;-57
2022/08/28 08:59:26;;;;;;;6.47;3.88;;;24.80;62.60;;;;;;5079292;28;20189;-57
2022/08/28 09:02:13;;;;;;;3.15;1.52;;;24.70;63.40;;;;;;5078411;28;20059;-45
2022/08/28 09:04:54;;;;;;;7.50;3.75;;;24.10;65.20;;;;;;5074752;28;20137;-57
2022/08/28 09:07:47;;;;;;;6.88;2.13;;;24.30;65.40;;;;;;5069963;28;20067;-58
2022/08/28 09:10:14;;;;;;;5.15;2.38;;;25.20;63.50;;;;;;5073046;28;20072;-57
2022/08/28 09:12:59;;;;;;;12.68;10.02;;;25.40;61.90;;;;;;5072895;28;20158;-48
2022/08/28 09:15:30;;;;;;;8.00;4.32;;;25.40;60.30;;;;;;5066468;28;20118;-44
2022/08/28 09:18:11;;;;;;;4.10;1.27;;;25.90;62.10;;;;;;5080624;28;20105;-46
2022/08/28 09:20:37;;;;;;;12.15;9.73;;;26.30;60.30;;;;;;5073570;28;20052;-44
2022/08/28 09:23:03;;;;;;;11.55;9.77;;;26.40;61.60;;;;;;5075322;28;20133;-44
2022/08/28 09:25:56;;;;;;;6.22;3.90;;;25.90;61.80;;;;;;5067911;28;20114;-48
2022/08/28 09:28:25;;;;;;;6.18;1.70;;;25.10;61.10;;;;;;5066541;28;20145;-44
2022/08/28 09:31:14;;;;;;;10.90;4.38;;;24.60;65.00;;;;;;5084773;28;20044;-46
2022/08/28 09:33:46;;;;;;;4.32;2.05;;;23.80;66.10;;;;;;5056631;28;20044;-44
2022/08/28 09:36:28;;;;;;;9.18;5.28;;;24.70;65.30;;;;;;5053103;28;20550;-49
2022/08/28 09:39:23;;;;;;;4.65;1.60;;;25.60;61.80;;;;;;5065251;28;20619;-47
2022/08/28 09:45:20;;;;;;;4.70;1.92;;;26.40;59.90;;;;;;5071175;28;20439;-46
2022/08/28 09:47:55;;;;;;;6.32;3.25;;;26.20;57.70;;;;;;5055429;28;20515;-45
2022/08/28 09:50:50;;;;;;;6.32;2.08;;;25.50;58.60;;;;;;5071169;28;20438;-45
2022/08/28 09:53:19;;;;;;;11.00;7.53;;;24.60;58.50;;;;;;5076467;28;20085;-42
2022/08/28 09:56:16;;;;;;;6.38;1.92;;;24.30;59.80;;;;;;5076511;28;20127;-44
2022/08/28 09:58:48;;;;;;;6.03;2.17;;;24.30;60.10;;;;;;5072962;28;20336;-47
2022/08/28 10:01:47;;;;;;;5.30;1.83;;;25.20;61.60;;;;;;5074859;28;20056;-55
2022/08/28 10:04:23;;;;;;;5.78;2.47;;;26.30;60.70;;;;;;5067205;28;20056;-56
2022/08/28 10:06:59;;;;;;;5.70;1.92;;;26.40;57.90;;;;;;5075511;28;20043;-57
2022/08/28 10:09:41;;;;;;;6.05;3.88;;;25.40;57.20;;;;;;5093437;28;20114;-56
2022/08/28 10:12:26;;;;;;;;;;;25.00;59.10;;;;;;5079379;28;20536;-58
2022/08/28 10:15:02;;;;;;;6.03;1.63;;;24.30;60.60;;;;;;5071958;28;19919;-58
2022/08/28 10:17:38;;;;;;;9.02;4.75;;;24.40;63.60;;;;;;5068919;28;20048;-57
2022/08/28 10:20:16;;;;;;;8.68;6.85;;;25.60;62.40;;;;;;5092097;28;20427;-57
2022/08/28 10:22:52;;;;;;;8.07;3.42;;;26.80;58.10;;;;;;5073693;28;20047;-57
2022/08/28 10:25:31;;;;;;;5.80;3.08;;;26.20;56.30;;;;;;5078394;28;20044;-57
2022/08/28 10:28:33;;;;;;;5.00;2.30;;;25.70;56.70;;;;;;5073621;28;20134;-57
2022/08/28 10:31:25;;;;;;;9.73;7.45;;;25.60;58.30;;;;;;5059359;28;20103;-57
2022/08/28 10:34:13;;;;;;;5.63;2.17;;;26.10;54.70;;;;;;5089750;27;20049;-57
2022/08/28 10:36:41;;;;;;;6.05;2.20;;;26.60;55.80;;;;;;5073439;28;20051;-57
2022/08/28 10:39:40;;;;;;;7.05;4.15;;;26.70;55.20;;;;;;5069641;28;20422;-57
2022/08/28 10:42:06;;;;;;;5.32;2.42;;;26.10;54.30;;;;;;5077618;28;20052;-57
2022/08/28 10:45:04;;;;;;;10.95;6.13;;;25.30;56.00;;;;;;5058077;28;20045;-57
2022/08/28 10:47:33;;;;;;;5.47;2.03;;;25.40;57.30;;;;;;5077752;28;20097;-55
2022/08/28 10:50:07;;;;;;;6.45;2.78;;;25.80;57.10;;;;;;5073116;28;20041;-44
2022/08/28 10:52:47;;;;;;;7.65;2.38;;;26.60;55.40;;;;;;5069376;28;20036;-47
2022/08/28 10:55:45;;;;;;;10.50;7.07;;;27.40;54.00;;;;;;5068314;28;20364;-44
2022/08/28 10:58:12;;;;;;;5.13;2.10;;;27.70;51.90;;;;;;5076351;28;20084;-46
2022/08/28 11:00:41;;;;;;;15.02;11.20;;;28.10;51.90;;;;;;5074203;28;20047;-46
2022/08/28 11:03:18;;;;;;;5.70;2.00;;;26.90;50.80;;;;;;5066711;28;20163;-44
2022/08/28 11:05:56;;;;;;;5.30;1.90;;;26.20;51.80;;;;;;5072423;28;20051;-43
2022/08/28 11:08:30;;;;;;;8.13;6.55;;;25.30;53.30;;;;;;5072229;28;21022;-43
2022/08/28 11:10:59;;;;;;;5.18;1.85;;;24.80;54.90;;;;;;5075417;28;20046;-58
2022/08/28 11:13:50;;;;;;;11.00;3.55;;;24.10;56.20;;;;;;5056023;28;20048;-57
2022/08/28 11:16:35;;;;;;;8.77;4.43;;;24.40;58.60;;;;;;5060322;28;20509;-57
2022/08/28 11:19:20;;;;;;;6.10;2.10;;;25.40;57.50;;;;;;5073095;28;20040;-56
2022/08/28 11:21:52;;;;;;;8.93;7.05;;;26.80;55.40;;;;;;5068343;28;20480;-57
2022/08/28 11:24:32;;;;;;;6.13;2.90;;;27.20;53.30;;;;;;5076320;28;20042;-58
2022/08/28 11:27:20;;;;;;;9.57;4.35;;;26.30;54.00;;;;;;5071199;28;20139;-57
2022/08/28 11:30:00;;;;;;;5.70;1.85;;;25.70;55.20;;;;;;5066383;28;20129;-57
2022/08/28 11:32:50;;;;;;;7.93;5.40;;;24.50;57.20;;;;;;5073216;28;20082;-59
2022/08/28 11:35:28;;;;;;;5.63;3.25;;;24.40;58.10;;;;;;5081811;27;20411;-57
2022/08/28 11:37:56;;;;;;;9.95;7.50;;;24.50;58.90;;;;;;5067674;28;20462;-59
2022/08/28 11:40:31;;;;;;;10.98;8.05;;;24.20;59.10;;;;;;5070136;28;20083;-58
2022/08/28 11:43:13;;;;;;;7.03;2.70;;;24.80;59.00;;;;;;5068623;28;20382;-58
2022/08/28 11:45:42;;;;;;;12.75;9.95;;;26.00;58.20;;;;;;5084227;27;20051;-51
2022/08/28 11:48:38;;;;;;;3.72;1.90;;;26.80;57.00;;;;;;5088951;28;20044;-58
2022/08/28 11:51:16;;;;;;;7.15;3.47;;;27.00;54.40;;;;;;5081023;28;21621;-57
2022/08/28 11:53:48;;;;;;;5.15;3.10;;;26.30;53.50;;;;;;5091768;28;20487;-57
2022/08/28 11:56:35;;;;;;;6.82;3.15;;;25.30;54.00;;;;;;5080773;28;20072;-58
2022/08/28 11:59:20;;;;;;;9.00;4.28;;;25.10;55.60;;;;;;5076373;28;20052;-57
2022/08/28 12:01:46;;;;;;;6.60;3.05;;;24.40;57.10;;;;;;5079488;28;20064;-57
2022/08/28 12:04:15;;;;;;;6.53;4.05;;;24.80;57.70;;;;;;5097369;28;20309;-57
2022/08/28 12:06:47;;;;;;;6.40;2.78;;;25.70;56.70;;;;;;5092224;27;20047;-58
2022/08/28 12:09:25;;;;;;;5.68;2.30;;;26.60;53.40;;;;;;5076294;28;20094;-61
2022/08/28 12:12:04;;;;;;;12.18;7.72;;;27.20;50.80;;;;;;5081358;28;20061;-58
2022/08/28 12:14:39;;;;;;;6.07;1.70;;;27.80;50.90;;;;;;5047494;28;20040;-56
2022/08/28 12:17:20;;;;;;;5.15;2.15;;;28.30;48.80;;;;;;5080924;28;20044;-57
2022/08/28 12:20:11;;;;;;;3.28;1.80;;;28.70;48.30;;;;;;5076233;28;20177;-58
2022/08/28 12:22:49;;;;;;;;;;;28.90;45.90;;;;;;5076524;28;20131;-56
2022/08/28 12:25:29;;;;;;;8.27;2.60;;;27.20;45.60;;;;;;5079622;28;19958;-57
2022/08/28 12:27:57;;;;;;;;;;;26.70;48.40;;;;;;5077234;28;20071;-58
2022/08/28 12:30:28;;;;;;;6.97;3.63;;;25.60;48.30;;;;;;5067444;28;19924;-58
2022/08/28 12:33:06;;;;;;;4.18;2.05;;;26.30;49.30;;;;;;5071435;28;20509;-57
2022/08/28 12:35:33;;;;;;;8.65;6.38;;;26.70;48.80;;;;;;5065395;28;20044;-57
2022/08/28 12:38:03;;;;;;;4.97;2.28;;;27.20;48.90;;;;;;5073017;28;20451;-58
2022/08/28 12:40:49;;;;;;;6.05;2.70;;;27.00;48.30;;;;;;5072724;28;20076;-57
2022/08/28 12:43:27;;;;;;;6.38;3.00;;;25.90;48.80;;;;;;5084308;27;20051;-58
2022/08/28 12:45:58;;;;;;;4.43;2.33;;;25.50;49.40;;;;;;5070081;28;20092;-56
2022/08/28 12:48:25;;;;;;;9.25;7.85;;;26.40;50.20;;;;;;5070144;28;20044;-59
2022/08/28 12:50:58;;;;;;;5.53;1.92;;;27.40;49.60;;;;;;5069389;28;20047;-56
2022/08/28 12:53:24;;;;;;;8.32;3.97;;;26.40;49.00;;;;;;5069184;28;20047;-57
2022/08/28 12:55:50;;;;;;;8.27;5.65;;;26.00;49.50;;;;;;5066280;28;20048;-57
2022/08/28 12:58:29;;;;;;;8.38;6.05;;;25.80;49.90;;;;;;5085049;28;20044;-57
2022/08/28 13:01:01;;;;;;;6.15;3.53;;;26.20;49.80;;;;;;5067781;28;20055;-55
2022/08/28 13:03:28;;;;;;;7.47;3.17;;;25.60;50.10;;;;;;5075158;28;20354;-57
2022/08/28 13:06:05;;;;;;;8.85;5.18;;;25.20;51.50;;;;;;5066177;28;20052;-57
2022/08/28 13:08:36;;;;;;;6.82;3.00;;;26.00;51.50;;;;;;5075416;28;20398;-47
2022/08/28 13:11:03;;;;;;;8.35;5.93;;;27.30;50.50;;;;;;5065233;28;20615;-45
2022/08/28 13:13:38;;;;;;;14.32;11.48;;;27.40;48.10;;;;;;5068096;28;20464;-57